sensor_id;sensor_type;location;lat;lon;timestamp;temperature;humidity
65707;SHT31;52423;43.512;5.220;2022-12-07T00:03:30;3.90;84.11
65707;SHT31;52423;43.512;5.220;2022-12-07T00:06:00;3.85;84.01
65707;SHT31;52423;43.512;5.220;2022-12-07T00:08:25;3.80;83.66
65707;SHT31;52423;43.512;5.220;2022-12-07T00:10:50;3.70;84.68
65707;SHT31;52423;43.512;5.220;2022-12-07T00:13:16;3.76;84.60
65707;SHT31;52423;43.512;5.220;2022-12-07T00:15:41;3.70;84.54
65707;SHT31;52423;43.512;5.220;2022-12-07T00:18:06;3.69;84.44
65707;SHT31;52423;43.512;5.220;2022-12-07T00:20:32;3.66;84.61
65707;SHT31;52423;43.512;5.220;2022-12-07T00:22:58;3.66;85.00
65707;SHT31;52423;43.512;5.220;2022-12-07T00:25:23;3.75;84.68
65707;SHT31;52423;43.512;5.220;2022-12-07T00:27:49;3.70;85.60
65707;SHT31;52423;43.512;5.220;2022-12-07T00:30:14;3.76;84.82
65707;SHT31;52423;43.512;5.220;2022-12-07T00:32:40;3.76;84.33
65707;SHT31;52423;43.512;5.220;2022-12-07T00:35:05;3.76;84.40
65707;SHT31;52423;43.512;5.220;2022-12-07T00:37:31;3.51;85.34
65707;SHT31;52423;43.512;5.220;2022-12-07T00:39:56;3.60;84.69
65707;SHT31;52423;43.512;5.220;2022-12-07T00:42:21;3.55;86.33
65707;SHT31;52423;43.512;5.220;2022-12-07T00:44:47;3.40;85.16
65707;SHT31;52423;43.512;5.220;2022-12-07T00:47:12;3.39;86.40
65707;SHT31;52423;43.512;5.220;2022-12-07T00:49:37;3.58;85.40
65707;SHT31;52423;43.512;5.220;2022-12-07T00:52:03;3.60;84.37
65707;SHT31;52423;43.512;5.220;2022-12-07T00:54:28;3.62;84.59
65707;SHT31;52423;43.512;5.220;2022-12-07T00:56:54;3.67;83.68
65707;SHT31;52423;43.512;5.220;2022-12-07T00:59:19;3.55;84.35
65707;SHT31;52423;43.512;5.220;2022-12-07T01:01:44;3.46;83.75
65707;SHT31;52423;43.512;5.220;2022-12-07T01:04:10;3.42;83.99
65707;SHT31;52423;43.512;5.220;2022-12-07T01:06:35;3.40;85.05
65707;SHT31;52423;43.512;5.220;2022-12-07T01:09:01;3.40;84.96
65707;SHT31;52423;43.512;5.220;2022-12-07T01:11:29;3.26;86.22
65707;SHT31;52423;43.512;5.220;2022-12-07T01:13:56;3.26;85.27
65707;SHT31;52423;43.512;5.220;2022-12-07T01:16:23;3.15;86.23
65707;SHT31;52423;43.512;5.220;2022-12-07T01:18:51;3.15;85.67
65707;SHT31;52423;43.512;5.220;2022-12-07T01:21:22;3.09;86.99
65707;SHT31;52423;43.512;5.220;2022-12-07T01:23:48;3.15;86.13
65707;SHT31;52423;43.512;5.220;2022-12-07T01:26:16;3.26;86.12
65707;SHT31;52423;43.512;5.220;2022-12-07T01:28:42;3.25;86.39
65707;SHT31;52423;43.512;5.220;2022-12-07T01:31:09;3.18;87.63
65707;SHT31;52423;43.512;5.220;2022-12-07T01:33:40;3.04;86.37
65707;SHT31;52423;43.512;5.220;2022-12-07T01:36:16;3.14;86.19
65707;SHT31;52423;43.512;5.220;2022-12-07T01:38:42;3.07;86.20
65707;SHT31;52423;43.512;5.220;2022-12-07T01:41:08;3.21;86.29
65707;SHT31;52423;43.512;5.220;2022-12-07T01:43:34;3.18;86.40
65707;SHT31;52423;43.512;5.220;2022-12-07T01:46:01;3.07;85.93
65707;SHT31;52423;43.512;5.220;2022-12-07T01:48:37;3.09;86.06
65707;SHT31;52423;43.512;5.220;2022-12-07T01:51:07;3.21;86.89
65707;SHT31;52423;43.512;5.220;2022-12-07T01:53:36;3.15;85.71
65707;SHT31;52423;43.512;5.220;2022-12-07T01:56:02;3.24;85.44
65707;SHT31;52423;43.512;5.220;2022-12-07T01:58:28;3.28;85.54
65707;SHT31;52423;43.512;5.220;2022-12-07T02:00:53;3.42;86.54
65707;SHT31;52423;43.512;5.220;2022-12-07T02:03:24;3.35;85.57
65707;SHT31;52423;43.512;5.220;2022-12-07T02:05:53;3.32;86.48
65707;SHT31;52423;43.512;5.220;2022-12-07T02:08:19;3.36;86.27
65707;SHT31;52423;43.512;5.220;2022-12-07T02:10:45;3.39;85.34
65707;SHT31;52423;43.512;5.220;2022-12-07T02:13:23;3.18;86.04
65707;SHT31;52423;43.512;5.220;2022-12-07T02:30:14;3.09;85.53
65707;SHT31;52423;43.512;5.220;2022-12-07T02:43:28;2.85;85.76
65707;SHT31;52423;43.512;5.220;2022-12-07T02:45:57;2.80;85.69
65707;SHT31;52423;43.512;5.220;2022-12-07T02:48:24;2.77;85.23
65707;SHT31;52423;43.512;5.220;2022-12-07T02:50:52;2.84;85.11
65707;SHT31;52423;43.512;5.220;2022-12-07T02:53:39;2.83;85.74
65707;SHT31;52423;43.512;5.220;2022-12-07T02:59:36;2.68;86.28
65707;SHT31;52423;43.512;5.220;2022-12-07T03:10:28;2.57;87.42
65707;SHT31;52423;43.512;5.220;2022-12-07T03:13:16;2.58;85.37
65707;SHT31;52423;43.512;5.220;2022-12-07T03:16:09;2.46;86.13
65707;SHT31;52423;43.512;5.220;2022-12-07T03:18:42;2.53;86.01
65707;SHT31;52423;43.512;5.220;2022-12-07T03:21:13;2.60;85.87
65707;SHT31;52423;43.512;5.220;2022-12-07T03:23:41;2.66;85.57
65707;SHT31;52423;43.512;5.220;2022-12-07T03:26:10;2.67;85.08
65707;SHT31;52423;43.512;5.220;2022-12-07T03:28:42;2.58;85.12
65707;SHT31;52423;43.512;5.220;2022-12-07T03:31:17;2.57;86.41
65707;SHT31;52423;43.512;5.220;2022-12-07T03:36:28;2.32;86.87
65707;SHT31;52423;43.512;5.220;2022-12-07T03:41:44;2.47;85.96
65707;SHT31;52423;43.512;5.220;2022-12-07T03:44:10;2.53;86.31
65707;SHT31;52423;43.512;5.220;2022-12-07T03:46:48;2.46;85.88
65707;SHT31;52423;43.512;5.220;2022-12-07T03:51:45;2.40;87.39
65707;SHT31;52423;43.512;5.220;2022-12-07T03:56:48;2.49;87.22
65707;SHT31;52423;43.512;5.220;2022-12-07T03:59:14;2.28;86.75
65707;SHT31;52423;43.512;5.220;2022-12-07T04:01:44;2.25;87.00
65707;SHT31;52423;43.512;5.220;2022-12-07T04:04:10;2.32;87.13
65707;SHT31;52423;43.512;5.220;2022-12-07T04:06:36;2.44;86.37
65707;SHT31;52423;43.512;5.220;2022-12-07T04:09:01;2.64;85.02
65707;SHT31;52423;43.512;5.220;2022-12-07T04:11:26;2.66;85.02
65707;SHT31;52423;43.512;5.220;2022-12-07T04:13:52;2.70;85.50
65707;SHT31;52423;43.512;5.220;2022-12-07T04:16:36;2.72;85.79
65707;SHT31;52423;43.512;5.220;2022-12-07T04:19:01;2.70;85.45
65707;SHT31;52423;43.512;5.220;2022-12-07T04:21:26;2.70;85.46
65707;SHT31;52423;43.512;5.220;2022-12-07T04:23:52;2.73;85.37
65707;SHT31;52423;43.512;5.220;2022-12-07T04:26:17;2.81;84.64
65707;SHT31;52423;43.512;5.220;2022-12-07T04:28:42;2.79;85.11
65707;SHT31;52423;43.512;5.220;2022-12-07T04:31:08;2.74;86.75
65707;SHT31;52423;43.512;5.220;2022-12-07T04:33:35;2.61;86.12
65707;SHT31;52423;43.512;5.220;2022-12-07T04:36:00;2.53;87.57
65707;SHT31;52423;43.512;5.220;2022-12-07T04:38:26;2.54;86.57
65707;SHT31;52423;43.512;5.220;2022-12-07T04:40:51;2.60;85.00
65707;SHT31;52423;43.512;5.220;2022-12-07T04:43:17;2.68;87.40
65707;SHT31;52423;43.512;5.220;2022-12-07T04:45:46;2.60;85.23
65707;SHT31;52423;43.512;5.220;2022-12-07T04:48:12;2.63;85.99
65707;SHT31;52423;43.512;5.220;2022-12-07T04:50:37;2.68;86.25
65707;SHT31;52423;43.512;5.220;2022-12-07T04:53:03;2.67;85.04
65707;SHT31;52423;43.512;5.220;2022-12-07T04:55:28;2.72;86.41
65707;SHT31;52423;43.512;5.220;2022-12-07T04:57:54;2.73;84.87
65707;SHT31;52423;43.512;5.220;2022-12-07T05:00:19;2.57;86.15
65707;SHT31;52423;43.512;5.220;2022-12-07T05:02:45;2.50;86.92
65707;SHT31;52423;43.512;5.220;2022-12-07T05:05:10;2.33;86.66
65707;SHT31;52423;43.512;5.220;2022-12-07T05:07:35;2.43;85.86
65707;SHT31;52423;43.512;5.220;2022-12-07T05:10:01;2.43;85.68
65707;SHT31;52423;43.512;5.220;2022-12-07T05:12:26;2.37;85.41
65707;SHT31;52423;43.512;5.220;2022-12-07T05:14:51;2.19;86.39
65707;SHT31;52423;43.512;5.220;2022-12-07T05:17:17;2.25;87.62
65707;SHT31;52423;43.512;5.220;2022-12-07T05:19:42;2.21;87.60
65707;SHT31;52423;43.512;5.220;2022-12-07T05:22:07;2.22;87.40
65707;SHT31;52423;43.512;5.220;2022-12-07T05:24:33;2.18;87.50
65707;SHT31;52423;43.512;5.220;2022-12-07T05:26:59;2.13;88.37
65707;SHT31;52423;43.512;5.220;2022-12-07T05:29:24;2.08;86.42
65707;SHT31;52423;43.512;5.220;2022-12-07T05:31:49;2.11;86.30
65707;SHT31;52423;43.512;5.220;2022-12-07T05:34:15;2.06;87.45
65707;SHT31;52423;43.512;5.220;2022-12-07T05:36:40;1.97;87.52
65707;SHT31;52423;43.512;5.220;2022-12-07T05:39:06;1.98;87.75
65707;SHT31;52423;43.512;5.220;2022-12-07T05:41:32;1.97;88.67
65707;SHT31;52423;43.512;5.220;2022-12-07T05:44:16;1.97;87.76
65707;SHT31;52423;43.512;5.220;2022-12-07T05:46:42;1.92;88.48
65707;SHT31;52423;43.512;5.220;2022-12-07T05:49:07;1.91;86.57
65707;SHT31;52423;43.512;5.220;2022-12-07T05:51:32;1.82;86.49
65707;SHT31;52423;43.512;5.220;2022-12-07T05:53:58;1.73;87.73
65707;SHT31;52423;43.512;5.220;2022-12-07T05:56:23;1.78;88.23
65707;SHT31;52423;43.512;5.220;2022-12-07T05:58:49;1.82;88.14
65707;SHT31;52423;43.512;5.220;2022-12-07T06:01:33;1.89;87.08
65707;SHT31;52423;43.512;5.220;2022-12-07T06:03:58;1.88;86.08
65707;SHT31;52423;43.512;5.220;2022-12-07T06:06:24;1.82;87.23
65707;SHT31;52423;43.512;5.220;2022-12-07T06:08:49;1.85;88.18
65707;SHT31;52423;43.512;5.220;2022-12-07T06:11:14;1.85;86.83
65707;SHT31;52423;43.512;5.220;2022-12-07T06:13:58;1.71;87.94
65707;SHT31;52423;43.512;5.220;2022-12-07T06:16:23;1.64;87.13
65707;SHT31;52423;43.512;5.220;2022-12-07T06:18:49;1.48;88.21
65707;SHT31;52423;43.512;5.220;2022-12-07T06:21:14;1.42;88.76
65707;SHT31;52423;43.512;5.220;2022-12-07T06:23:40;1.33;88.76
65707;SHT31;52423;43.512;5.220;2022-12-07T06:26:05;1.54;89.72
65707;SHT31;52423;43.512;5.220;2022-12-07T06:28:30;1.67;89.20
65707;SHT31;52423;43.512;5.220;2022-12-07T06:31:00;1.67;88.79
65707;SHT31;52423;43.512;5.220;2022-12-07T06:33:26;1.78;87.13
65707;SHT31;52423;43.512;5.220;2022-12-07T06:35:52;1.54;87.89
65707;SHT31;52423;43.512;5.220;2022-12-07T06:38:17;1.73;88.46
65707;SHT31;52423;43.512;5.220;2022-12-07T06:40:43;1.86;86.47
65707;SHT31;52423;43.512;5.220;2022-12-07T06:43:08;1.79;88.05
65707;SHT31;52423;43.512;5.220;2022-12-07T06:45:34;1.78;86.85
65707;SHT31;52423;43.512;5.220;2022-12-07T06:47:59;1.70;88.11
65707;SHT31;52423;43.512;5.220;2022-12-07T06:50:24;1.64;87.67
65707;SHT31;52423;43.512;5.220;2022-12-07T06:52:51;1.61;88.75
65707;SHT31;52423;43.512;5.220;2022-12-07T06:55:16;1.55;89.00
65707;SHT31;52423;43.512;5.220;2022-12-07T06:57:42;1.86;87.75
65707;SHT31;52423;43.512;5.220;2022-12-07T07:00:08;1.70;88.49
65707;SHT31;52423;43.512;5.220;2022-12-07T07:02:33;1.82;89.04
65707;SHT31;52423;43.512;5.220;2022-12-07T07:04:58;1.92;89.09
65707;SHT31;52423;43.512;5.220;2022-12-07T07:07:24;1.97;88.65
65707;SHT31;52423;43.512;5.220;2022-12-07T07:09:49;1.98;88.11
65707;SHT31;52423;43.512;5.220;2022-12-07T07:12:15;2.18;88.66
65707;SHT31;52423;43.512;5.220;2022-12-07T07:14:40;2.21;88.21
65707;SHT31;52423;43.512;5.220;2022-12-07T07:17:07;2.30;87.59
65707;SHT31;52423;43.512;5.220;2022-12-07T07:19:32;2.50;86.29
65707;SHT31;52423;43.512;5.220;2022-12-07T07:21:57;2.60;85.84
65707;SHT31;52423;43.512;5.220;2022-12-07T07:24:23;2.76;85.14
65707;SHT31;52423;43.512;5.220;2022-12-07T07:26:48;2.76;85.33
65707;SHT31;52423;43.512;5.220;2022-12-07T07:29:13;2.93;83.83
65707;SHT31;52423;43.512;5.220;2022-12-07T07:31:39;3.01;83.69
65707;SHT31;52423;43.512;5.220;2022-12-07T07:34:04;3.15;82.64
65707;SHT31;52423;43.512;5.220;2022-12-07T07:36:30;3.09;84.37
65707;SHT31;52423;43.512;5.220;2022-12-07T07:38:55;3.19;82.53
65707;SHT31;52423;43.512;5.220;2022-12-07T07:41:20;3.26;82.23
65707;SHT31;52423;43.512;5.220;2022-12-07T07:43:46;3.38;81.93
65707;SHT31;52423;43.512;5.220;2022-12-07T07:46:11;3.32;83.81
65707;SHT31;52423;43.512;5.220;2022-12-07T07:48:36;3.39;84.18
65707;SHT31;52423;43.512;5.220;2022-12-07T07:51:06;3.43;81.71
65707;SHT31;52423;43.512;5.220;2022-12-07T07:53:32;3.49;81.93
65707;SHT31;52423;43.512;5.220;2022-12-07T07:55:57;3.46;81.50
65707;SHT31;52423;43.512;5.220;2022-12-07T07:58:24;3.51;82.20
65707;SHT31;52423;43.512;5.220;2022-12-07T08:00:50;3.48;81.73
65707;SHT31;52423;43.512;5.220;2022-12-07T08:03:16;3.55;81.71
65707;SHT31;52423;43.512;5.220;2022-12-07T08:05:41;3.59;81.26
65707;SHT31;52423;43.512;5.220;2022-12-07T08:08:07;3.67;81.18
65707;SHT31;52423;43.512;5.220;2022-12-07T08:10:32;3.75;81.43
65707;SHT31;52423;43.512;5.220;2022-12-07T08:12:58;3.77;81.58
65707;SHT31;52423;43.512;5.220;2022-12-07T08:15:44;3.80;80.74
65707;SHT31;52423;43.512;5.220;2022-12-07T08:18:10;3.80;81.05
65707;SHT31;52423;43.512;5.220;2022-12-07T08:20:37;3.77;80.99
65707;SHT31;52423;43.512;5.220;2022-12-07T08:23:03;3.83;81.75
65707;SHT31;52423;43.512;5.220;2022-12-07T08:25:29;3.76;82.79
65707;SHT31;52423;43.512;5.220;2022-12-07T08:27:55;3.65;82.19
65707;SHT31;52423;43.512;5.220;2022-12-07T08:30:20;3.72;82.92
65707;SHT31;52423;43.512;5.220;2022-12-07T08:32:47;3.82;83.21
65707;SHT31;52423;43.512;5.220;2022-12-07T08:35:14;3.83;83.29
65707;SHT31;52423;43.512;5.220;2022-12-07T08:37:40;3.80;81.70
65707;SHT31;52423;43.512;5.220;2022-12-07T08:40:10;3.82;83.17
65707;SHT31;52423;43.512;5.220;2022-12-07T08:42:40;3.89;82.35
65707;SHT31;52423;43.512;5.220;2022-12-07T08:45:09;3.87;81.44
65707;SHT31;52423;43.512;5.220;2022-12-07T08:47:37;3.93;82.09
65707;SHT31;52423;43.512;5.220;2022-12-07T08:50:04;4.03;81.44
65707;SHT31;52423;43.512;5.220;2022-12-07T08:52:31;4.03;82.14
65707;SHT31;52423;43.512;5.220;2022-12-07T08:54:58;4.04;82.77
65707;SHT31;52423;43.512;5.220;2022-12-07T08:57:24;4.20;81.44
65707;SHT31;52423;43.512;5.220;2022-12-07T08:59:50;4.20;81.79
65707;SHT31;52423;43.512;5.220;2022-12-07T09:02:15;4.22;81.27
65707;SHT31;52423;43.512;5.220;2022-12-07T09:04:40;4.35;79.37
65707;SHT31;52423;43.512;5.220;2022-12-07T09:07:06;4.40;80.12
65707;SHT31;52423;43.512;5.220;2022-12-07T09:09:32;4.40;80.80
65707;SHT31;52423;43.512;5.220;2022-12-07T09:11:58;4.51;78.66
65707;SHT31;52423;43.512;5.220;2022-12-07T09:14:23;4.52;81.21
65707;SHT31;52423;43.512;5.220;2022-12-07T09:16:49;4.58;80.07
65707;SHT31;52423;43.512;5.220;2022-12-07T09:19:15;4.78;80.31
65707;SHT31;52423;43.512;5.220;2022-12-07T09:21:41;4.95;79.48
65707;SHT31;52423;43.512;5.220;2022-12-07T09:24:07;5.09;78.58
65707;SHT31;52423;43.512;5.220;2022-12-07T09:26:33;5.22;78.33
65707;SHT31;52423;43.512;5.220;2022-12-07T09:28:58;5.34;76.84
65707;SHT31;52423;43.512;5.220;2022-12-07T09:31:25;5.44;76.58
65707;SHT31;52423;43.512;5.220;2022-12-07T09:33:57;5.40;75.97
65707;SHT31;52423;43.512;5.220;2022-12-07T09:36:23;5.46;75.19
65707;SHT31;52423;43.512;5.220;2022-12-07T09:38:49;5.46;77.07
65707;SHT31;52423;43.512;5.220;2022-12-07T09:41:14;5.69;74.55
65707;SHT31;52423;43.512;5.220;2022-12-07T09:43:40;5.74;75.89
65707;SHT31;52423;43.512;5.220;2022-12-07T09:46:13;5.71;76.26
65707;SHT31;52423;43.512;5.220;2022-12-07T09:48:40;5.75;76.45
65707;SHT31;52423;43.512;5.220;2022-12-07T09:51:25;5.71;75.36
65707;SHT31;52423;43.512;5.220;2022-12-07T09:53:53;5.78;77.31
65707;SHT31;52423;43.512;5.220;2022-12-07T09:56:19;5.81;73.65
65707;SHT31;52423;43.512;5.220;2022-12-07T09:58:46;5.72;77.45
65707;SHT31;52423;43.512;5.220;2022-12-07T10:01:17;5.78;73.94
65707;SHT31;52423;43.512;5.220;2022-12-07T10:03:54;5.87;74.39
65707;SHT31;52423;43.512;5.220;2022-12-07T10:06:20;5.88;75.89
65707;SHT31;52423;43.512;5.220;2022-12-07T10:08:46;5.82;76.80
65707;SHT31;52423;43.512;5.220;2022-12-07T10:11:12;5.88;75.46
65707;SHT31;52423;43.512;5.220;2022-12-07T10:16:31;5.94;75.19
65707;SHT31;52423;43.512;5.220;2022-12-07T10:19:18;5.98;75.95
65707;SHT31;52423;43.512;5.220;2022-12-07T10:21:59;6.09;74.81
65707;SHT31;52423;43.512;5.220;2022-12-07T10:24:25;6.18;73.63
65707;SHT31;52423;43.512;5.220;2022-12-07T10:26:52;6.34;74.01
65707;SHT31;52423;43.512;5.220;2022-12-07T10:29:24;6.43;71.54
65707;SHT31;52423;43.512;5.220;2022-12-07T10:31:58;6.60;71.50
65707;SHT31;52423;43.512;5.220;2022-12-07T10:39:52;6.66;73.53
65707;SHT31;52423;43.512;5.220;2022-12-07T10:45:06;6.73;73.46
65707;SHT31;52423;43.512;5.220;2022-12-07T10:47:36;6.99;70.95
65707;SHT31;52423;43.512;5.220;2022-12-07T11:14:09;7.53;68.62
65707;SHT31;52423;43.512;5.220;2022-12-07T11:22:16;7.63;70.70
65707;SHT31;52423;43.512;5.220;2022-12-07T11:27:37;7.79;67.83
65707;SHT31;52423;43.512;5.220;2022-12-07T11:33:33;7.69;68.90
65707;SHT31;52423;43.512;5.220;2022-12-07T11:38:47;7.90;67.77
65707;SHT31;52423;43.512;5.220;2022-12-07T11:41:20;7.86;69.09
65707;SHT31;52423;43.512;5.220;2022-12-07T11:43:54;7.94;66.70
65707;SHT31;52423;43.512;5.220;2022-12-07T11:46:25;8.02;67.29
65707;SHT31;52423;43.512;5.220;2022-12-07T11:49:03;8.07;67.57
65707;SHT31;52423;43.512;5.220;2022-12-07T11:51:34;8.08;67.92
65707;SHT31;52423;43.512;5.220;2022-12-07T11:54:09;8.14;66.37
65707;SHT31;52423;43.512;5.220;2022-12-07T11:56:37;8.15;67.56
65707;SHT31;52423;43.512;5.220;2022-12-07T12:04:13;8.15;68.28
65707;SHT31;52423;43.512;5.220;2022-12-07T12:06:43;8.25;68.06
65707;SHT31;52423;43.512;5.220;2022-12-07T12:22:45;8.80;63.91
65707;SHT31;52423;43.512;5.220;2022-12-07T12:25:23;8.73;66.22
65707;SHT31;52423;43.512;5.220;2022-12-07T12:27:52;8.70;66.83
65707;SHT31;52423;43.512;5.220;2022-12-07T12:30:44;8.79;66.68
65707;SHT31;52423;43.512;5.220;2022-12-07T12:36:52;8.87;66.90
65707;SHT31;52423;43.512;5.220;2022-12-07T12:51:52;9.26;64.89
65707;SHT31;52423;43.512;5.220;2022-12-07T12:59:29;9.44;61.82
65707;SHT31;52423;43.512;5.220;2022-12-07T13:15:49;9.48;63.66
65707;SHT31;52423;43.512;5.220;2022-12-07T13:20:56;9.41;65.10
65707;SHT31;52423;43.512;5.220;2022-12-07T13:23:25;9.34;64.41
65707;SHT31;52423;43.512;5.220;2022-12-07T13:25:55;9.37;64.28
65707;SHT31;52423;43.512;5.220;2022-12-07T13:28:25;9.35;64.05
65707;SHT31;52423;43.512;5.220;2022-12-07T13:33:36;9.28;65.23
65707;SHT31;52423;43.512;5.220;2022-12-07T13:36:02;9.26;67.16
65707;SHT31;52423;43.512;5.220;2022-12-07T13:38:32;9.26;64.91
65707;SHT31;52423;43.512;5.220;2022-12-07T13:43:48;9.50;63.22
65707;SHT31;52423;43.512;5.220;2022-12-07T13:46:13;9.61;62.26
65707;SHT31;52423;43.512;5.220;2022-12-07T13:48:49;9.51;64.19
65707;SHT31;52423;43.512;5.220;2022-12-07T13:51:26;9.41;63.91
65707;SHT31;52423;43.512;5.220;2022-12-07T13:53:59;9.51;61.56
65707;SHT31;52423;43.512;5.220;2022-12-07T13:56:34;9.44;61.79
65707;SHT31;52423;43.512;5.220;2022-12-07T13:59:00;9.44;63.46
65707;SHT31;52423;43.512;5.220;2022-12-07T14:01:26;9.48;61.65
65707;SHT31;52423;43.512;5.220;2022-12-07T14:03:52;9.34;63.28
65707;SHT31;52423;43.512;5.220;2022-12-07T14:08:43;9.11;64.31
65707;SHT31;52423;43.512;5.220;2022-12-07T14:11:16;9.07;65.05
65707;SHT31;52423;43.512;5.220;2022-12-07T14:13:55;8.96;66.37
65707;SHT31;52423;43.512;5.220;2022-12-07T14:18:46;9.11;63.34
65707;SHT31;52423;43.512;5.220;2022-12-07T14:21:23;9.03;64.38
65707;SHT31;52423;43.512;5.220;2022-12-07T14:24:09;9.06;63.34
65707;SHT31;52423;43.512;5.220;2022-12-07T14:26:35;8.89;65.74
65707;SHT31;52423;43.512;5.220;2022-12-07T14:31:46;8.68;67.45
65707;SHT31;52423;43.512;5.220;2022-12-07T14:34:12;8.70;67.43
65707;SHT31;52423;43.512;5.220;2022-12-07T14:36:37;8.69;65.15
65707;SHT31;52423;43.512;5.220;2022-12-07T14:39:03;8.76;63.48
65707;SHT31;52423;43.512;5.220;2022-12-07T14:41:28;8.70;64.76
65707;SHT31;52423;43.512;5.220;2022-12-07T14:44:12;8.69;64.19
65707;SHT31;52423;43.512;5.220;2022-12-07T14:46:38;8.62;66.06
65707;SHT31;52423;43.512;5.220;2022-12-07T14:49:03;8.65;64.55
65707;SHT31;52423;43.512;5.220;2022-12-07T14:51:29;8.61;65.53
65707;SHT31;52423;43.512;5.220;2022-12-07T14:53:54;8.53;66.41
65707;SHT31;52423;43.512;5.220;2022-12-07T14:56:20;8.42;66.61
65707;SHT31;52423;43.512;5.220;2022-12-07T14:58:45;8.35;65.72
65707;SHT31;52423;43.512;5.220;2022-12-07T15:01:13;8.31;65.65
65707;SHT31;52423;43.512;5.220;2022-12-07T15:03:38;8.27;67.89
65707;SHT31;52423;43.512;5.220;2022-12-07T15:06:05;8.21;65.32
65707;SHT31;52423;43.512;5.220;2022-12-07T15:08:31;8.22;66.85
65707;SHT31;52423;43.512;5.220;2022-12-07T15:10:57;8.11;64.99
65707;SHT31;52423;43.512;5.220;2022-12-07T15:13:22;8.05;65.97
65707;SHT31;52423;43.512;5.220;2022-12-07T15:16:10;7.98;66.67
65707;SHT31;52423;43.512;5.220;2022-12-07T15:18:36;7.91;66.09
65707;SHT31;52423;43.512;5.220;2022-12-07T15:21:01;7.84;66.72
65707;SHT31;52423;43.512;5.220;2022-12-07T15:23:27;7.77;66.98
65707;SHT31;52423;43.512;5.220;2022-12-07T15:25:52;7.73;67.66
65707;SHT31;52423;43.512;5.220;2022-12-07T15:28:18;7.59;67.65
65707;SHT31;52423;43.512;5.220;2022-12-07T15:30:44;7.60;68.86
65707;SHT31;52423;43.512;5.220;2022-12-07T15:33:10;7.40;68.36
65707;SHT31;52423;43.512;5.220;2022-12-07T15:35:45;7.36;68.37
65707;SHT31;52423;43.512;5.220;2022-12-07T15:38:10;7.25;69.03
65707;SHT31;52423;43.512;5.220;2022-12-07T15:40:36;7.15;70.09
65707;SHT31;52423;43.512;5.220;2022-12-07T15:43:02;7.07;69.37
65707;SHT31;52423;43.512;5.220;2022-12-07T15:45:27;7.07;69.45
65707;SHT31;52423;43.512;5.220;2022-12-07T15:47:52;7.01;71.28
65707;SHT31;52423;43.512;5.220;2022-12-07T15:50:20;6.88;71.79
65707;SHT31;52423;43.512;5.220;2022-12-07T15:52:46;6.78;73.19
65707;SHT31;52423;43.512;5.220;2022-12-07T15:55:11;6.74;71.72
65707;SHT31;52423;43.512;5.220;2022-12-07T15:57:38;6.60;73.73
65707;SHT31;52423;43.512;5.220;2022-12-07T16:00:05;6.61;75.53
65707;SHT31;52423;43.512;5.220;2022-12-07T16:02:31;6.50;74.84
65707;SHT31;52423;43.512;5.220;2022-12-07T16:04:56;6.43;73.59
65707;SHT31;52423;43.512;5.220;2022-12-07T16:07:21;6.37;73.41
65707;SHT31;52423;43.512;5.220;2022-12-07T16:09:47;6.32;75.25
65707;SHT31;52423;43.512;5.220;2022-12-07T16:12:14;6.32;76.17
65707;SHT31;52423;43.512;5.220;2022-12-07T16:14:40;6.19;74.22
65707;SHT31;52423;43.512;5.220;2022-12-07T16:17:07;6.15;74.86
65707;SHT31;52423;43.512;5.220;2022-12-07T16:19:33;6.09;74.58
65707;SHT31;52423;43.512;5.220;2022-12-07T16:21:58;6.09;75.49
65707;SHT31;52423;43.512;5.220;2022-12-07T16:24:24;5.99;75.83
65707;SHT31;52423;43.512;5.220;2022-12-07T16:26:49;5.98;76.49
65707;SHT31;52423;43.512;5.220;2022-12-07T16:29:16;5.88;76.79
65707;SHT31;52423;43.512;5.220;2022-12-07T16:31:42;5.78;75.76
65707;SHT31;52423;43.512;5.220;2022-12-07T16:34:08;5.77;76.55
65707;SHT31;52423;43.512;5.220;2022-12-07T16:36:34;5.71;76.59
65707;SHT31;52423;43.512;5.220;2022-12-07T16:39:00;5.64;76.74
65707;SHT31;52423;43.512;5.220;2022-12-07T16:41:26;5.62;77.26
65707;SHT31;52423;43.512;5.220;2022-12-07T16:43:51;5.50;78.38
65707;SHT31;52423;43.512;5.220;2022-12-07T16:46:17;5.47;79.39
65707;SHT31;52423;43.512;5.220;2022-12-07T16:48:43;5.48;78.53
65707;SHT31;52423;43.512;5.220;2022-12-07T16:51:11;5.40;77.80
65707;SHT31;52423;43.512;5.220;2022-12-07T16:53:38;5.22;78.87
65707;SHT31;52423;43.512;5.220;2022-12-07T16:56:10;5.23;78.94
65707;SHT31;52423;43.512;5.220;2022-12-07T16:58:35;5.20;78.67
65707;SHT31;52423;43.512;5.220;2022-12-07T17:01:15;5.24;79.41
65707;SHT31;52423;43.512;5.220;2022-12-07T17:03:41;5.17;77.99
65707;SHT31;52423;43.512;5.220;2022-12-07T17:06:16;5.12;79.03
65707;SHT31;52423;43.512;5.220;2022-12-07T17:08:42;5.16;79.00
65707;SHT31;52423;43.512;5.220;2022-12-07T17:11:19;5.15;78.97
65707;SHT31;52423;43.512;5.220;2022-12-07T17:13:45;5.09;78.94
65707;SHT31;52423;43.512;5.220;2022-12-07T17:16:36;4.97;79.49
65707;SHT31;52423;43.512;5.220;2022-12-07T17:19:06;4.97;79.75
65707;SHT31;52423;43.512;5.220;2022-12-07T17:21:33;4.92;79.60
65707;SHT31;52423;43.512;5.220;2022-12-07T17:24:04;4.61;80.50
65707;SHT31;52423;43.512;5.220;2022-12-07T17:26:30;4.64;82.58
65707;SHT31;52423;43.512;5.220;2022-12-07T17:28:56;4.62;82.26
65707;SHT31;52423;43.512;5.220;2022-12-07T17:31:23;4.54;82.25
65707;SHT31;52423;43.512;5.220;2022-12-07T17:33:49;4.62;81.45
65707;SHT31;52423;43.512;5.220;2022-12-07T17:36:17;4.59;80.68
65707;SHT31;52423;43.512;5.220;2022-12-07T17:38:44;4.64;80.07
65707;SHT31;52423;43.512;5.220;2022-12-07T17:41:18;4.56;80.35
65707;SHT31;52423;43.512;5.220;2022-12-07T17:44:03;4.54;80.68
65707;SHT31;52423;43.512;5.220;2022-12-07T17:46:29;4.44;80.51
65707;SHT31;52423;43.512;5.220;2022-12-07T17:48:55;4.51;81.40
65707;SHT31;52423;43.512;5.220;2022-12-07T17:51:20;4.48;81.20
65707;SHT31;52423;43.512;5.220;2022-12-07T17:54:04;4.40;83.08
65707;SHT31;52423;43.512;5.220;2022-12-07T17:56:30;4.27;82.57
65707;SHT31;52423;43.512;5.220;2022-12-07T17:58:55;4.27;82.98
65707;SHT31;52423;43.512;5.220;2022-12-07T18:01:21;4.25;83.07
65707;SHT31;52423;43.512;5.220;2022-12-07T18:03:46;4.33;81.79
65707;SHT31;52423;43.512;5.220;2022-12-07T18:06:11;4.28;81.94
65707;SHT31;52423;43.512;5.220;2022-12-07T18:08:37;4.24;81.53
65707;SHT31;52423;43.512;5.220;2022-12-07T18:11:04;4.18;81.73
65707;SHT31;52423;43.512;5.220;2022-12-07T18:13:30;4.14;81.31
65707;SHT31;52423;43.512;5.220;2022-12-07T18:16:06;4.04;82.86
65707;SHT31;52423;43.512;5.220;2022-12-07T18:18:32;3.97;82.29
65707;SHT31;52423;43.512;5.220;2022-12-07T18:21:01;3.97;82.72
65707;SHT31;52423;43.512;5.220;2022-12-07T18:23:27;3.86;83.44
65707;SHT31;52423;43.512;5.220;2022-12-07T18:25:53;3.96;82.74
65707;SHT31;52423;43.512;5.220;2022-12-07T18:28:18;3.90;84.71
65707;SHT31;52423;43.512;5.220;2022-12-07T18:30:45;3.86;84.16
65707;SHT31;52423;43.512;5.220;2022-12-07T18:33:16;3.89;83.68
65707;SHT31;52423;43.512;5.220;2022-12-07T18:35:42;3.80;83.13
65707;SHT31;52423;43.512;5.220;2022-12-07T18:38:07;3.87;83.54